Gaschem Phoenix — ELUO6 — position and weather

sailwx.info

Track history (hours):
 
Tides and Currents Weather Stations Pressure Air Temp Water Temp Dewpoint Dewpoint Depression Visibility Wind Speed Wind Dir Waves Ship Positions

Gaschem Phoenix

Last reported at 2017-Aug-16 10:48 UTC. Time now 2017-Aug-17 19:18 UTC.
Position N 22°46' E 120°06'.

Length 100 m; draft 4.6 m.

Type: Ship. MMSI: 636090235.

Date/timePositionNaut miles runAvg speedWind from/ knotsBaromVisibWave heightAir tempDewpointWater temp
2017-Aug-16 10:48N 22°46' E 120°06'412.4
2017-Aug-16 10:30N 22°43' E 120°08'611.9
2017-Aug-16 09:59N 22°38' E 120°13'5 9.2
2017-Aug-16 09:27N 22°36' E 120°18'1 0.7
2017-Aug-16 08:32N 22°36' E 120°18'0 0.0
2017-Aug-16 08:26N 22°36' E 120°18'0 0.0
2017-Aug-16 07:55N 22°36' E 120°18'0 0.0
2017-Aug-16 00:18N 22°36' E 120°18'0 0.0
2017-Aug-15 07:03N 22°36' E 120°18'0 0.0
2017-Aug-15 06:59N 22°36' E 120°18'1 2.0
2017-Aug-15 06:30N 22°36' E 120°18'4 8.0
2017-Aug-15 06:01N 22°37' E 120°13'510.1
2017-Aug-15 05:30N 22°41' E 120°09'810.6
2017-Aug-15 04:42N 22°48' E 120°04'111 9.6
2017-Aug-14 17:07N 24°39' E 120°14'1 9.8
2017-Aug-14 16:58N 24°40' E 120°14'50 9.0
2017-Aug-14 11:26N 25°28' E 120°30'  
2017-Aug-09 13:29N 34°55' E 139°23'511.0
2017-Aug-09 13:00N 34°58' E 139°28'511.0
2017-Aug-09 12:30N 35°01' E 139°34'510.8
2017-Aug-09 12:00N 35°04' E 139°39'510.5
2017-Aug-09 11:30N 35°07' E 139°44'611.7
2017-Aug-09 11:00N 35°13' E 139°46'612.6
2017-Aug-09 10:30N 35°19' E 139°43'611.9
2017-Aug-09 10:00N 35°25' E 139°44'612.8
2017-Aug-09 09:30N 35°29' E 139°50'612.5
2017-Aug-09 09:01N 35°31' E 139°57'5 0.5
2017-Aug-08 23:38N 35°31' E 140°02'0 0.0
2017-Aug-08 23:30N 35°31' E 140°02'2 3.5
2017-Aug-08 23:00N 35°31' E 140°00'1 0.1
2017-Aug-08 19:12N 35°31' E 139°60'0 0.0
2017-Aug-08 19:00N 35°31' E 139°60'0 0.0
2017-Aug-08 16:44N 35°31' E 139°60'0 0.1
2017-Aug-08 16:23N 35°31' E 139°60'0 0.1
2017-Aug-08 15:34N 35°31' E 139°60'0 0.0
2017-Aug-08 15:25N 35°31' E 139°60'0 0.0
2017-Aug-08 14:55N 35°31' E 139°60'0 0.0
2017-Aug-08 14:19N 35°31' E 139°60'0 0.0
2017-Aug-08 14:01N 35°31' E 139°60'0 0.0
2017-Aug-08 13:30N 35°31' E 139°60'0 0.0
2017-Aug-08 13:00N 35°31' E 139°60'0 0.0
2017-Aug-08 12:30N 35°31' E 139°60'0 0.0
2017-Aug-08 11:57N 35°31' E 139°60'0 0.0
2017-Aug-08 11:26N 35°31' E 139°60'0 0.0
2017-Aug-08 10:59N 35°31' E 139°60'0 0.0
2017-Aug-08 10:29N 35°31' E 139°60'0 0.0
2017-Aug-08 09:59N 35°31' E 139°60'0 0.1
2017-Aug-08 09:23N 35°31' E 139°60'2 5.6
2017-Aug-08 09:00N 35°30' E 139°57'612.1
2017-Aug-08 08:30N 35°28' E 139°51'612.9
2017-Aug-08 08:00N 35°23' E 139°46'611.5
2017-Aug-08 07:30N 35°17' E 139°46'611.7
2017-Aug-08 07:01N 35°11' E 139°47'5 9.4
2017-Aug-08 06:30N 35°06' E 139°46'4 8.8
2017-Aug-08 06:00N 35°02' E 139°43'3 6.9
2017-Aug-08 05:30N 34°60' E 139°41'3 6.5
2017-Aug-08 05:00N 35°03' E 139°41'5 9.1
2017-Aug-08 04:30N 35°02' E 139°36'611.3
2017-Aug-08 04:00N 35°00' E 139°29'1011.7
2017-Aug-08 03:11N 34°57' E 139°18'9 3.9
2017-Aug-08 00:56N 35°05' E 139°23'4 8.2
2017-Aug-08 00:25N 35°01' E 139°22'11 1.4
2017-Aug-07 16:35N 35°11' E 139°19'1 6.1
2017-Aug-07 16:25N 35°12' E 139°19'11 1.5
2017-Aug-07 09:15N 35°03' E 139°25'3 8.1
2017-Aug-07 08:53N 35°03' E 139°28'3 8.3
2017-Aug-07 08:30N 35°04' E 139°32'4 8.3
2017-Aug-07 08:00N 35°05' E 139°37'4 8.2
2017-Aug-07 07:30N 35°06' E 139°42'4 7.8
2017-Aug-07 07:00N 35°09' E 139°45'611.1
2017-Aug-07 06:30N 35°14' E 139°46'510.6
2017-Aug-07 06:00N 35°19' E 139°43'510.6
2017-Aug-07 05:30N 35°24' E 139°43'611.5
2017-Aug-07 05:01N 35°28' E 139°49'611.4
2017-Aug-07 04:30N 35°30' E 139°55'3 5.6
2017-Aug-07 03:56N 35°30' E 139°59'0 0.1
2017-Aug-07 03:25N 35°30' E 139°59'0 0.0
2017-Aug-07 02:58N 35°30' E 139°59'0 0.0
2017-Aug-07 02:28N 35°30' E 139°59'0 0.0
2017-Aug-07 01:58N 35°30' E 139°59'0 0.0
2017-Aug-07 01:30N 35°30' E 139°59'0 0.0
2017-Aug-07 01:00N 35°30' E 139°59'0 0.1
2017-Aug-07 00:30N 35°30' E 139°59'0 0.0
2017-Aug-06 19:07N 35°30' E 139°59'0 0.0
2017-Aug-06 18:55N 35°30' E 139°59'0 0.0
2017-Aug-06 18:24N 35°30' E 139°59'0 0.0
2017-Aug-06 18:00N 35°30' E 139°59'0 0.0
2017-Aug-06 17:27N 35°30' E 139°59'0 0.1
2017-Aug-06 17:00N 35°30' E 139°59'0 0.1
2017-Aug-06 16:08N 35°30' E 139°59'0 0.3
2017-Aug-06 15:59N 35°30' E 139°59'0 0.0
2017-Aug-06 15:29N 35°30' E 139°59'  
Track history (hours):
 
Tides and Currents Weather Stations Pressure Air Temp Water Temp Dewpoint Dewpoint Depression Visibility Wind Speed Wind Dir Waves Ship Positions

Gaschem Phoenix

Last reported at 2017-Aug-16 10:48 UTC. Time now 2017-Aug-17 19:18 UTC.
Position N 22°46' E 120°06'.

Length 100 m; draft 4.6 m.

Type: Ship. MMSI: 636090235.

Date/timePositionNaut miles runAvg speedWind from/ knotsBaromVisibWave heightAir tempDewpointWater temp
2017-Aug-16 10:48N 22°46' E 120°06'412.4
2017-Aug-16 10:30N 22°43' E 120°08'611.9
2017-Aug-16 09:59N 22°38' E 120°13'5 9.2
2017-Aug-16 09:27N 22°36' E 120°18'1 0.7
2017-Aug-16 08:32N 22°36' E 120°18'0 0.0
2017-Aug-16 08:26N 22°36' E 120°18'0 0.0
2017-Aug-16 07:55N 22°36' E 120°18'0 0.0
2017-Aug-16 00:18N 22°36' E 120°18'0 0.0
2017-Aug-15 07:03N 22°36' E 120°18'0 0.0
2017-Aug-15 06:59N 22°36' E 120°18'1 2.0
2017-Aug-15 06:30N 22°36' E 120°18'4 8.0
2017-Aug-15 06:01N 22°37' E 120°13'510.1
2017-Aug-15 05:30N 22°41' E 120°09'810.6
2017-Aug-15 04:42N 22°48' E 120°04'111 9.6
2017-Aug-14 17:07N 24°39' E 120°14'1 9.8
2017-Aug-14 16:58N 24°40' E 120°14'50 9.0
2017-Aug-14 11:26N 25°28' E 120°30'  
2017-Aug-09 13:29N 34°55' E 139°23'511.0
2017-Aug-09 13:00N 34°58' E 139°28'511.0
2017-Aug-09 12:30N 35°01' E 139°34'510.8
2017-Aug-09 12:00N 35°04' E 139°39'510.5
2017-Aug-09 11:30N 35°07' E 139°44'611.7
2017-Aug-09 11:00N 35°13' E 139°46'612.6
2017-Aug-09 10:30N 35°19' E 139°43'611.9
2017-Aug-09 10:00N 35°25' E 139°44'612.8
2017-Aug-09 09:30N 35°29' E 139°50'612.5
2017-Aug-09 09:01N 35°31' E 139°57'5 0.5
2017-Aug-08 23:38N 35°31' E 140°02'0 0.0
2017-Aug-08 23:30N 35°31' E 140°02'2 3.5
2017-Aug-08 23:00N 35°31' E 140°00'1 0.1
2017-Aug-08 19:12N 35°31' E 139°60'0 0.0
2017-Aug-08 19:00N 35°31' E 139°60'0 0.0
2017-Aug-08 16:44N 35°31' E 139°60'0 0.1
2017-Aug-08 16:23N 35°31' E 139°60'0 0.1
2017-Aug-08 15:34N 35°31' E 139°60'0 0.0
2017-Aug-08 15:25N 35°31' E 139°60'0 0.0
2017-Aug-08 14:55N 35°31' E 139°60'0 0.0
2017-Aug-08 14:19N 35°31' E 139°60'0 0.0
2017-Aug-08 14:01N 35°31' E 139°60'0 0.0
2017-Aug-08 13:30N 35°31' E 139°60'0 0.0
2017-Aug-08 13:00N 35°31' E 139°60'0 0.0
2017-Aug-08 12:30N 35°31' E 139°60'0 0.0
2017-Aug-08 11:57N 35°31' E 139°60'0 0.0
2017-Aug-08 11:26N 35°31' E 139°60'0 0.0
2017-Aug-08 10:59N 35°31' E 139°60'0 0.0
2017-Aug-08 10:29N 35°31' E 139°60'0 0.0
2017-Aug-08 09:59N 35°31' E 139°60'0 0.1
2017-Aug-08 09:23N 35°31' E 139°60'2 5.6
2017-Aug-08 09:00N 35°30' E 139°57'612.1
2017-Aug-08 08:30N 35°28' E 139°51'612.9
2017-Aug-08 08:00N 35°23' E 139°46'611.5
2017-Aug-08 07:30N 35°17' E 139°46'611.7
2017-Aug-08 07:01N 35°11' E 139°47'5 9.4
2017-Aug-08 06:30N 35°06' E 139°46'4 8.8
2017-Aug-08 06:00N 35°02' E 139°43'3 6.9
2017-Aug-08 05:30N 34°60' E 139°41'3 6.5
2017-Aug-08 05:00N 35°03' E 139°41'5 9.1
2017-Aug-08 04:30N 35°02' E 139°36'611.3
2017-Aug-08 04:00N 35°00' E 139°29'1011.7
2017-Aug-08 03:11N 34°57' E 139°18'9 3.9
2017-Aug-08 00:56N 35°05' E 139°23'4 8.2
2017-Aug-08 00:25N 35°01' E 139°22'11 1.4
2017-Aug-07 16:35N 35°11' E 139°19'1 6.1
2017-Aug-07 16:25N 35°12' E 139°19'11 1.5
2017-Aug-07 09:15N 35°03' E 139°25'3 8.1
2017-Aug-07 08:53N 35°03' E 139°28'3 8.3
2017-Aug-07 08:30N 35°04' E 139°32'4 8.3
2017-Aug-07 08:00N 35°05' E 139°37'4 8.2
2017-Aug-07 07:30N 35°06' E 139°42'4 7.8
2017-Aug-07 07:00N 35°09' E 139°45'611.1
2017-Aug-07 06:30N 35°14' E 139°46'510.6
2017-Aug-07 06:00N 35°19' E 139°43'510.6
2017-Aug-07 05:30N 35°24' E 139°43'611.5
2017-Aug-07 05:01N 35°28' E 139°49'611.4
2017-Aug-07 04:30N 35°30' E 139°55'3 5.6
2017-Aug-07 03:56N 35°30' E 139°59'0 0.1
2017-Aug-07 03:25N 35°30' E 139°59'0 0.0
2017-Aug-07 02:58N 35°30' E 139°59'0 0.0
2017-Aug-07 02:28N 35°30' E 139°59'0 0.0
2017-Aug-07 01:58N 35°30' E 139°59'0 0.0
2017-Aug-07 01:30N 35°30' E 139°59'0 0.0
2017-Aug-07 01:00N 35°30' E 139°59'0 0.1
2017-Aug-07 00:30N 35°30' E 139°59'0 0.0
2017-Aug-06 19:07N 35°30' E 139°59'0 0.0
2017-Aug-06 18:55N 35°30' E 139°59'0 0.0
2017-Aug-06 18:24N 35°30' E 139°59'0 0.0
2017-Aug-06 18:00N 35°30' E 139°59'0 0.0
2017-Aug-06 17:27N 35°30' E 139°59'0 0.1
2017-Aug-06 17:00N 35°30' E 139°59'0 0.1
2017-Aug-06 16:08N 35°30' E 139°59'0 0.3
2017-Aug-06 15:59N 35°30' E 139°59'0 0.0
2017-Aug-06 15:29N 35°30' E 139°59'  

Dump ship's entire track history